Time;durP1;ratioP1;P1;durP2;ratioP2;P2;SDS_P1;SDS_P2;PMS_P1;PMS_P2;Temp;Humidity;BMP_temperature;BMP_pressure;BME280_temperature;BME280_humidity;BME280_pressure;Samples;Min_cycle;Max_cycle;Signal;HPM_P1;HPM_P2
2023/02/11 00:01:18;;;;;;;4.88;3.90;;;20.70;56.50;;;;;;4959348;28;86284;-84
2023/02/11 00:03:44;;;;;;;5.25;3.88;;;20.70;56.50;;;;;;4958582;28;86313;-84
2023/02/11 00:06:10;;;;;;;5.30;3.90;;;20.70;56.60;;;;;;4959365;28;87432;-83
2023/02/11 00:08:36;;;;;;;4.32;3.78;;;20.70;56.50;;;;;;4958392;28;86948;-84
2023/02/11 00:11:03;;;;;;;4.68;3.67;;;20.70;56.60;;;;;;4959237;28;85698;-83
2023/02/11 00:13:28;;;;;;;4.28;3.50;;;20.70;56.50;;;;;;4959147;28;85957;-83
2023/02/11 00:15:55;;;;;;;4.25;3.55;;;20.60;56.50;;;;;;4959195;28;86506;-84
2023/02/11 00:18:20;;;;;;;4.38;3.72;;;20.60;56.60;;;;;;4958864;28;87452;-83
2023/02/11 00:20:46;;;;;;;4.50;3.42;;;20.60;56.70;;;;;;4958140;28;86394;-83
2023/02/11 00:23:12;;;;;;;5.93;3.70;;;20.50;57.30;;;;;;4959518;28;86532;-84
2023/02/11 00:25:43;;;;;;;5.20;4.10;;;20.50;56.50;;;;;;4958406;28;87687;-83
2023/02/11 00:28:09;;;;;;;4.28;3.80;;;20.50;56.60;;;;;;4958738;28;86614;-83
2023/02/11 00:30:36;;;;;;;6.15;4.07;;;20.50;56.60;;;;;;4958564;28;86075;-84
2023/02/11 00:33:01;;;;;;;4.38;3.63;;;20.50;56.70;;;;;;4958517;28;85728;-83
2023/02/11 00:35:27;;;;;;;6.53;4.03;;;20.50;56.50;;;;;;4956480;28;89848;-83
2023/02/11 00:37:53;;;;;;;4.72;3.95;;;20.50;56.70;;;;;;4959290;28;87055;-83
2023/02/11 00:40:19;;;;;;;4.30;3.60;;;20.40;56.60;;;;;;4958786;28;86241;-84
2023/02/11 00:42:45;;;;;;;4.25;3.60;;;20.40;56.50;;;;;;4958315;28;86745;-84
2023/02/11 00:45:11;;;;;;;3.85;3.22;;;20.40;56.40;;;;;;4957717;28;87511;-83
2023/02/11 00:47:37;;;;;;;5.25;4.30;;;20.40;56.60;;;;;;4957576;28;86804;-83
2023/02/11 00:50:04;;;;;;;4.95;3.80;;;20.40;56.50;;;;;;4958058;28;85923;-83
2023/02/11 00:52:30;;;;;;;7.10;4.43;;;20.40;56.60;;;;;;4959000;28;86170;-83
2023/02/11 00:55:15;;;;;;;5.10;3.83;;;20.30;56.60;;;;;;4947546;28;88431;-83
2023/02/11 00:57:41;;;;;;;4.90;3.70;;;20.40;56.70;;;;;;4958545;28;86352;-83
2023/02/11 01:00:07;;;;;;;4.82;3.90;;;20.30;56.50;;;;;;4958364;28;86600;-83
2023/02/11 01:02:33;;;;;;;5.20;4.18;;;20.30;56.50;;;;;;4957877;28;86337;-83
2023/02/11 01:04:59;;;;;;;4.07;3.40;;;20.30;56.70;;;;;;4958851;28;86473;-84
2023/02/11 01:07:30;;;;;;;5.07;3.92;;;20.30;56.50;;;;;;4958459;28;86747;-83
2023/02/11 01:09:56;;;;;;;4.30;3.75;;;20.20;56.50;;;;;;4956099;28;85944;-83
2023/02/11 01:12:22;;;;;;;5.20;3.90;;;20.20;56.60;;;;;;4957852;28;86335;-83
2023/02/11 01:14:48;;;;;;;4.85;3.85;;;20.20;56.50;;;;;;4939295;28;93474;-84
2023/02/11 01:17:13;;;;;;;3.75;3.20;;;20.20;56.20;;;;;;4958561;28;86143;-84
2023/02/11 01:19:40;;;;;;;4.07;3.53;;;20.20;56.40;;;;;;4958207;28;85833;-84
2023/02/11 01:22:06;;;;;;;6.20;4.20;;;20.20;56.30;;;;;;4958103;28;86746;-84
2023/02/11 01:24:32;;;;;;;4.60;3.92;;;20.20;56.40;;;;;;4957580;28;86357;-83
2023/02/11 01:26:57;;;;;;;4.80;3.75;;;20.10;56.40;;;;;;4957934;28;86505;-83
2023/02/11 01:29:23;;;;;;;4.47;4.00;;;20.10;56.50;;;;;;4958609;28;86365;-83
2023/02/11 01:31:51;;;;;;;4.57;3.92;;;20.10;56.50;;;;;;4958884;28;85815;-84
2023/02/11 01:34:18;;;;;;;4.95;3.92;;;20.20;56.50;;;;;;4957566;28;86315;-83
2023/02/11 01:36:43;;;;;;;4.95;3.65;;;20.20;56.50;;;;;;4957669;28;87011;-84
2023/02/11 01:39:09;;;;;;;4.47;3.67;;;20.10;56.40;;;;;;4956352;28;85636;-83
2023/02/11 01:41:35;;;;;;;4.00;3.38;;;20.10;56.50;;;;;;4954481;28;86200;-83
2023/02/11 01:44:25;;;;;;;4.78;4.13;;;20.10;56.50;;;;;;4954602;28;87793;-83
2023/02/11 01:46:51;;;;;;;5.70;3.83;;;20.10;56.40;;;;;;4893699;28;91161;-83
2023/02/11 01:49:38;;;;;;;4.78;3.90;;;20.10;56.50;;;;;;4894280;28;86176;-83
2023/02/11 01:52:21;;;;;;;5.55;3.85;;;20.10;56.50;;;;;;4880983;28;85938;-83
2023/02/11 01:57:41;;;;;;;4.82;3.88;;;20.10;56.40;;;;;;4896805;28;86175;-83
2023/02/11 02:00:12;;;;;;;5.38;3.90;;;20.00;56.50;;;;;;4904789;28;86539;-83
2023/02/11 02:03:18;;;;;;;4.60;3.92;;;20.00;56.60;;;;;;4900708;28;85806;-84
2023/02/11 02:05:55;;;;;;;4.90;3.65;;;20.00;56.70;;;;;;4900545;28;87484;-83
2023/02/11 02:08:52;;;;;;;4.45;3.40;;;20.00;56.50;;;;;;4900850;28;87090;-83
2023/02/11 02:11:18;;;;;;;3.67;3.35;;;20.00;56.60;;;;;;4899594;28;91182;-83
2023/02/11 02:13:44;;;;;;;4.28;3.53;;;20.00;56.50;;;;;;4899924;28;86228;-83
2023/02/11 02:16:16;;;;;;;4.82;3.65;;;20.00;56.70;;;;;;4898364;28;87370;-83
2023/02/11 02:18:45;;;;;;;5.28;3.75;;;19.90;56.40;;;;;;4899801;28;86673;-83
2023/02/11 02:21:35;;;;;;;4.95;3.53;;;19.90;56.50;;;;;;4900477;28;85653;-83
2023/02/11 02:24:43;;;;;;;3.95;3.55;;;19.90;56.40;;;;;;4932602;28;86191;-84
2023/02/11 02:34:18;;;;;;;4.00;3.30;;;19.90;56.40;;;;;;4960825;28;86254;-83
2023/02/11 02:36:56;;;;;;;5.13;3.78;;;19.90;57.00;;;;;;4960453;28;86406;-83
2023/02/11 02:39:28;;;;;;;4.60;3.58;;;19.90;56.40;;;;;;4960041;28;88042;-83
2023/02/11 02:41:57;;;;;;;4.00;3.35;;;19.90;56.60;;;;;;4959725;28;87892;-83
2023/02/11 02:44:23;;;;;;;4.07;3.03;;;19.80;56.40;;;;;;4961565;28;86166;-84
2023/02/11 02:46:49;;;;;;;5.63;3.80;;;19.90;56.40;;;;;;4960703;28;85723;-83
2023/02/11 02:49:15;;;;;;;4.22;3.58;;;19.80;56.30;;;;;;4960509;28;87293;-83
2023/02/11 02:52:19;;;;;;;3.67;3.15;;;19.80;56.50;;;;;;4960209;28;86938;-83
2023/02/11 02:55:28;;;;;;;5.00;4.05;;;19.80;56.40;;;;;;4960621;28;85656;-83
2023/02/11 02:58:17;;;;;;;4.53;3.30;;;19.80;56.30;;;;;;4959748;28;86273;-83
2023/02/11 03:00:58;;;;;;;4.75;3.63;;;19.80;56.40;;;;;;4959855;28;88110;-83
2023/02/11 03:04:01;;;;;;;4.30;3.30;;;19.80;56.30;;;;;;4959686;28;86430;-83
2023/02/11 03:06:52;;;;;;;5.18;3.55;;;19.80;56.30;;;;;;4959783;28;86227;-83
2023/02/11 03:09:29;;;;;;;4.57;3.80;;;19.70;56.40;;;;;;4959138;28;86441;-83
2023/02/11 03:11:55;;;;;;;5.15;3.65;;;19.70;56.30;;;;;;4959715;28;86155;-83
2023/02/11 03:14:40;;;;;;;5.05;3.75;;;19.70;56.40;;;;;;4960455;28;86166;-82
2023/02/11 03:17:09;;;;;;;4.00;3.38;;;19.70;56.30;;;;;;4960475;28;87536;-84
2023/02/11 03:19:38;;;;;;;5.25;3.45;;;19.70;56.40;;;;;;4959907;28;85866;-83
2023/02/11 03:22:09;;;;;;;3.78;3.15;;;19.70;56.20;;;;;;4959216;28;87548;-83
2023/02/11 03:24:45;;;;;;;5.15;3.42;;;19.70;56.10;;;;;;4947208;28;86847;-83
2023/02/11 03:27:29;;;;;;;3.55;2.92;;;19.70;56.20;;;;;;4958822;28;86389;-83
2023/02/11 03:30:10;;;;;;;3.95;3.30;;;19.70;56.40;;;;;;4959489;28;85695;-83
2023/02/11 03:32:39;;;;;;;3.95;3.28;;;19.70;56.40;;;;;;4958869;28;88010;-83
2023/02/11 03:35:25;;;;;;;4.28;3.55;;;19.70;56.40;;;;;;4960017;28;86445;-83
2023/02/11 03:38:03;;;;;;;3.83;3.40;;;19.70;56.40;;;;;;4959520;28;86290;-83
2023/02/11 03:40:33;;;;;;;4.00;3.10;;;19.60;56.30;;;;;;4959828;28;86315;-83
2023/02/11 03:43:05;;;;;;;4.55;3.40;;;19.60;56.30;;;;;;4958984;28;88057;-83
2023/02/11 03:45:32;;;;;;;4.68;3.50;;;19.60;56.30;;;;;;4958318;28;86028;-83
2023/02/11 03:48:07;;;;;;;4.55;3.80;;;19.60;56.40;;;;;;4958637;28;85822;-83
2023/02/11 03:50:36;;;;;;;4.18;3.30;;;19.60;56.40;;;;;;4958733;28;86206;-83
2023/02/11 03:53:02;;;;;;;4.47;3.22;;;19.60;56.40;;;;;;4959854;28;87139;-83
2023/02/11 03:55:33;;;;;;;4.70;3.70;;;19.60;56.40;;;;;;4958482;28;91374;-83
2023/02/11 03:57:59;;;;;;;3.55;3.25;;;19.60;56.30;;;;;;4959038;28;85941;-83
2023/02/11 04:00:34;;;;;;;3.38;3.03;;;19.60;56.20;;;;;;4959676;28;86304;-83
2023/02/11 04:02:59;;;;;;;3.88;2.92;;;19.60;56.20;;;;;;4959439;28;87532;-82
2023/02/11 04:05:25;;;;;;;3.67;3.10;;;19.60;56.20;;;;;;4957776;28;86623;-83
2023/02/11 04:07:50;;;;;;;3.75;3.30;;;19.50;56.30;;;;;;4960044;28;86102;-81
2023/02/11 04:10:16;;;;;;;4.55;3.30;;;19.50;56.20;;;;;;4959223;28;85725;-83
2023/02/11 04:12:42;;;;;;;3.40;3.00;;;19.60;56.00;;;;;;4958136;28;87434;-83
2023/02/11 04:15:08;;;;;;;3.28;2.97;;;19.60;56.10;;;;;;4957986;28;86126;-83
2023/02/11 04:17:33;;;;;;;3.67;2.80;;;19.60;55.90;;;;;;4958563;28;86061;-83
2023/02/11 04:19:59;;;;;;;3.97;2.85;;;19.70;55.90;;;;;;4959398;28;86228;-83
2023/02/11 04:22:25;;;;;;;4.38;3.40;;;19.80;55.80;;;;;;4958132;28;86938;-83
2023/02/11 04:24:50;;;;;;;4.63;2.78;;;19.80;55.70;;;;;;4957503;28;86312;-84
2023/02/11 04:27:16;;;;;;;5.25;4.30;;;19.90;55.70;;;;;;4945317;28;85762;-84
2023/02/11 04:29:42;;;;;;;6.40;4.53;;;20.00;54.60;;;;;;4953014;28;86116;-84
2023/02/11 04:32:09;;;;;;;5.03;3.78;;;20.10;53.90;;;;;;4959973;28;87408;-84
2023/02/11 04:34:34;;;;;;;5.20;3.65;;;20.20;54.70;;;;;;4958704;28;86803;-84
2023/02/11 04:37:00;;;;;;;6.47;3.67;;;20.20;54.50;;;;;;4958118;28;85878;-83
2023/02/11 04:39:25;;;;;;;6.38;3.60;;;20.30;54.00;;;;;;4957933;28;85879;-83
2023/02/11 04:41:53;;;;;;;7.10;3.92;;;20.40;53.70;;;;;;4936308;28;88944;-84
2023/02/11 04:44:19;;;;;;;6.15;4.00;;;20.40;53.60;;;;;;4938648;28;87137;-84
2023/02/11 04:46:45;;;;;;;7.65;3.92;;;20.40;53.60;;;;;;4949514;28;85761;-83
2023/02/11 04:49:15;;;;;;;7.00;4.40;;;20.50;53.60;;;;;;4947645;28;85978;-83
2023/02/11 04:51:41;;;;;;;7.57;3.90;;;20.50;53.80;;;;;;4946751;28;86171;-82
2023/02/11 04:54:07;;;;;;;7.72;3.72;;;20.40;53.70;;;;;;4947021;28;86529;-83
2023/02/11 04:56:33;;;;;;;7.63;4.15;;;20.40;54.10;;;;;;4956218;28;86071;-83
2023/02/11 04:58:58;;;;;;;11.13;4.32;;;20.30;54.10;;;;;;4956962;28;86288;-83
2023/02/11 05:01:24;;;;;;;6.13;3.63;;;20.30;54.20;;;;;;4956599;28;87414;-83
2023/02/11 05:03:50;;;;;;;7.47;4.18;;;20.30;54.50;;;;;;4949067;28;86033;-83
2023/02/11 05:06:16;;;;;;;5.45;3.78;;;20.20;54.70;;;;;;4945180;28;85998;-83
2023/02/11 05:08:41;;;;;;;7.57;4.20;;;20.20;55.50;;;;;;4946275;28;86299;-83
2023/02/11 05:11:13;;;;;;;6.60;3.83;;;20.20;54.90;;;;;;4950120;28;86826;-83
2023/02/11 05:13:38;;;;;;;6.82;4.30;;;20.10;54.90;;;;;;4945294;28;89114;-83
2023/02/11 05:16:04;;;;;;;6.47;3.70;;;20.10;54.90;;;;;;4947930;28;85794;-83
2023/02/11 05:18:30;;;;;;;6.65;3.15;;;20.10;54.90;;;;;;4938599;28;86233;-83
2023/02/11 05:20:56;;;;;;;5.65;3.20;;;20.10;55.00;;;;;;4950689;28;87150;-83
2023/02/11 05:23:25;;;;;;;6.18;3.28;;;20.10;55.00;;;;;;4940201;28;89998;-83
2023/02/11 05:25:50;;;;;;;7.33;3.47;;;20.10;55.00;;;;;;4957648;28;86521;-83
2023/02/11 05:28:16;;;;;;;7.13;3.83;;;20.10;55.20;;;;;;4957791;28;86375;-83
2023/02/11 05:30:41;;;;;;;7.80;3.47;;;20.20;54.90;;;;;;4957100;28;87125;-83
2023/02/11 05:33:07;;;;;;;5.30;3.70;;;20.20;55.10;;;;;;4957417;28;86965;-83
2023/02/11 05:35:33;;;;;;;5.28;3.25;;;20.20;55.10;;;;;;4957186;28;92521;-83
2023/02/11 05:37:58;;;;;;;6.70;3.50;;;20.20;55.20;;;;;;4959088;28;85945;-83
2023/02/11 05:40:24;;;;;;;6.07;3.35;;;20.20;55.20;;;;;;4957705;28;87322;-83
2023/02/11 05:42:49;;;;;;;6.03;3.30;;;20.20;55.20;;;;;;4957615;28;86917;-83
2023/02/11 05:45:15;;;;;;;4.85;2.80;;;20.10;55.20;;;;;;4957640;28;86208;-83
2023/02/11 05:47:40;;;;;;;4.15;2.95;;;20.10;55.10;;;;;;4957088;28;86362;-83
2023/02/11 05:50:06;;;;;;;6.53;3.35;;;20.20;55.20;;;;;;4958572;28;86843;-83
2023/02/11 05:52:32;;;;;;;7.35;3.95;;;20.10;55.20;;;;;;4935819;28;90500;-83
2023/02/11 05:54:57;;;;;;;5.88;3.50;;;20.10;55.10;;;;;;4950339;28;86387;-83
2023/02/11 05:57:23;;;;;;;6.43;3.25;;;20.10;55.20;;;;;;4958566;28;86219;-83
2023/02/11 05:59:49;;;;;;;6.15;3.50;;;20.10;55.10;;;;;;4957330;28;86735;-83
2023/02/11 06:02:14;;;;;;;5.70;3.13;;;20.10;55.10;;;;;;4957981;28;86949;-83
2023/02/11 06:04:40;;;;;;;5.90;3.17;;;20.10;55.10;;;;;;4957209;28;85650;-83
2023/02/11 06:07:06;;;;;;;5.53;2.78;;;20.10;55.20;;;;;;4957351;28;85942;-83
2023/02/11 06:09:31;;;;;;;4.80;2.92;;;20.10;55.30;;;;;;4957642;28;88011;-83
2023/02/11 06:11:57;;;;;;;5.63;2.97;;;20.10;55.20;;;;;;4956973;28;86656;-83
2023/02/11 06:14:22;;;;;;;5.13;2.92;;;20.10;55.10;;;;;;4958543;28;86182;-83
2023/02/11 06:16:48;;;;;;;5.43;2.67;;;20.10;55.20;;;;;;4957259;28;86051;-84
2023/02/11 06:19:14;;;;;;;5.00;3.20;;;20.10;55.30;;;;;;4957562;28;86784;-84
2023/02/11 06:21:41;;;;;;;5.40;3.17;;;20.10;55.20;;;;;;4956915;28;86533;-83
2023/02/11 06:24:07;;;;;;;5.13;2.90;;;20.10;55.30;;;;;;4956992;28;85820;-83
2023/02/11 06:26:33;;;;;;;5.88;3.20;;;20.10;55.20;;;;;;4957335;28;85680;-83
2023/02/11 06:28:59;;;;;;;4.90;2.80;;;20.20;55.00;;;;;;4958094;28;88084;-83
2023/02/11 06:31:25;;;;;;;6.05;2.55;;;20.20;55.00;;;;;;4957526;28;87402;-83
2023/02/11 06:33:50;;;;;;;3.65;2.90;;;20.20;55.00;;;;;;4957437;28;86123;-84
2023/02/11 06:36:18;;;;;;;3.92;2.47;;;20.20;55.00;;;;;;4957256;28;86273;-84
2023/02/11 06:38:45;;;;;;;4.60;2.80;;;20.10;55.00;;;;;;4956695;28;87182;-83
2023/02/11 06:41:15;;;;;;;4.72;2.80;;;20.20;55.00;;;;;;4957064;28;86154;-83
2023/02/11 06:43:41;;;;;;;5.35;2.50;;;20.20;55.60;;;;;;4956388;28;86209;-83
2023/02/11 06:46:07;;;;;;;5.22;3.05;;;20.20;54.70;;;;;;4956176;28;86345;-82
2023/02/11 06:48:34;;;;;;;3.53;2.58;;;20.10;55.40;;;;;;4958244;28;87545;-83
2023/02/11 06:51:08;;;;;;;5.25;3.00;;;20.10;54.70;;;;;;4958935;28;86407;-83
2023/02/11 06:53:36;;;;;;;3.55;2.45;;;20.10;54.80;;;;;;4960004;28;86146;-83
2023/02/11 06:56:08;;;;;;;5.72;2.63;;;20.10;54.80;;;;;;4960443;28;85970;-83
2023/02/11 06:58:34;;;;;;;5.18;2.58;;;20.10;55.00;;;;;;4959801;28;87140;-83
2023/02/11 07:01:05;;;;;;;3.83;2.75;;;20.10;54.90;;;;;;4958989;28;86640;-83
2023/02/11 07:03:33;;;;;;;5.15;2.28;;;20.10;54.90;;;;;;4959444;28;85655;-84
2023/02/11 07:05:59;;;;;;;4.15;2.65;;;20.10;54.90;;;;;;4959596;28;85931;-83
2023/02/11 07:08:24;;;;;;;4.20;2.47;;;20.10;54.90;;;;;;4959940;28;87353;-83
2023/02/11 07:10:50;;;;;;;4.38;2.80;;;20.10;54.90;;;;;;4960446;28;86462;-83
2023/02/11 07:13:16;;;;;;;3.08;2.33;;;20.10;54.90;;;;;;4959258;28;86361;-85
2023/02/11 07:15:41;;;;;;;5.85;3.08;;;20.20;54.70;;;;;;4961112;28;85683;-84
2023/02/11 07:18:07;;;;;;;4.15;2.90;;;20.30;54.00;;;;;;4963568;28;87115;-86
2023/02/11 07:20:32;;;;;;;5.10;3.35;;;20.30;53.70;;;;;;4960561;28;86798;-85
2023/02/11 07:29:54;;;;;;;5.72;3.47;;;20.40;53.40;;;;;;4961167;28;86068;-84
2023/02/11 07:32:20;;;;;;;6.35;2.60;;;20.40;53.80;;;;;;4963654;28;86070;-85
2023/02/11 07:34:47;;;;;;;6.10;3.10;;;20.40;53.70;;;;;;4959549;28;86162;-83
2023/02/11 07:37:12;;;;;;;8.32;3.20;;;20.40;53.80;;;;;;4960277;28;86511;-84
2023/02/11 07:39:38;;;;;;;7.90;3.13;;;20.30;53.30;;;;;;4959476;28;87686;-84
2023/02/11 07:42:04;;;;;;;6.03;3.35;;;20.20;53.50;;;;;;4960326;28;86956;-85
2023/02/11 07:44:32;;;;;;;6.32;3.47;;;20.20;53.50;;;;;;4960374;28;86443;-85
2023/02/11 07:46:58;;;;;;;7.97;3.38;;;20.30;53.80;;;;;;4961398;28;86163;-85
2023/02/11 07:49:24;;;;;;;8.30;3.08;;;20.30;54.10;;;;;;4960169;28;87521;-85
2023/02/11 07:51:50;;;;;;;7.90;3.42;;;20.30;54.30;;;;;;4959594;28;86486;-84
2023/02/11 07:54:34;;;;;;;5.20;2.83;;;20.30;54.20;;;;;;4959836;28;86083;-85
2023/02/11 07:57:00;;;;;;;6.50;2.70;;;20.20;54.30;;;;;;4960293;28;85832;-84
2023/02/11 07:59:26;;;;;;;9.23;3.60;;;20.10;54.50;;;;;;4959937;28;87560;-85
2023/02/11 08:01:52;;;;;;;7.90;3.45;;;20.20;54.40;;;;;;4960191;28;86700;-85
2023/02/11 08:04:17;;;;;;;6.07;3.03;;;20.20;54.40;;;;;;4958751;28;86269;-83
2023/02/11 08:06:43;;;;;;;5.50;2.95;;;20.20;54.60;;;;;;4958579;28;86437;-84
2023/02/11 08:09:14;;;;;;;8.68;3.35;;;20.20;54.80;;;;;;4959626;28;87940;-84
2023/02/11 08:11:40;;;;;;;10.13;3.85;;;20.20;54.80;;;;;;4959785;28;86051;-85
2023/02/11 08:14:05;;;;;;;12.88;3.70;;;20.20;54.40;;;;;;4958819;28;86126;-84
2023/02/11 08:16:34;;;;;;;8.25;3.17;;;20.30;54.20;;;;;;4954814;28;86357;-85
2023/02/11 08:19:02;;;;;;;6.00;2.95;;;20.30;54.30;;;;;;4956020;28;87147;-84
2023/02/11 08:21:28;;;;;;;6.43;3.08;;;20.30;54.60;;;;;;4953995;28;92265;-85
2023/02/11 08:23:55;;;;;;;5.93;2.85;;;20.30;54.50;;;;;;4955184;28;86217;-85
2023/02/11 08:26:27;;;;;;;6.82;2.78;;;20.20;54.70;;;;;;4956694;28;85763;-85
2023/02/11 08:28:55;;;;;;;5.72;2.80;;;20.20;54.60;;;;;;4958639;28;90191;-85
2023/02/11 08:31:23;;;;;;;9.38;3.45;;;20.20;54.70;;;;;;4960540;28;87219;-85
2023/02/11 08:33:49;;;;;;;5.33;3.03;;;20.20;54.70;;;;;;4957969;28;86505;-85
2023/02/11 08:36:18;;;;;;;7.28;3.25;;;20.20;54.70;;;;;;4959705;28;85803;-85
2023/02/11 08:38:44;;;;;;;5.53;2.73;;;20.20;55.00;;;;;;4941084;28;89478;-85
2023/02/11 08:41:13;;;;;;;7.32;3.00;;;20.10;55.00;;;;;;4959601;28;85885;-84
2023/02/11 08:43:42;;;;;;;10.48;3.70;;;20.20;54.60;;;;;;4959860;28;86436;-85
2023/02/11 08:46:13;;;;;;;11.00;3.65;;;20.30;54.60;;;;;;4959148;28;85573;-85
2023/02/11 08:48:39;;;;;;;9.68;3.60;;;20.30;54.60;;;;;;4959275;28;87585;-85
2023/02/11 08:51:07;;;;;;;9.68;2.92;;;20.40;54.60;;;;;;4957062;28;88667;-85
2023/02/11 08:53:33;;;;;;;4.13;2.42;;;20.50;54.60;;;;;;4959172;28;86347;-85
2023/02/11 08:55:58;;;;;;;6.68;3.17;;;20.50;54.40;;;;;;4960056;28;86252;-85
2023/02/11 08:58:26;;;;;;;5.93;2.88;;;20.70;54.10;;;;;;4958616;28;87554;-85
2023/02/11 09:00:55;;;;;;;7.07;3.00;;;20.80;53.90;;;;;;4919187;28;88772;-84
2023/02/11 09:03:21;;;;;;;7.60;3.40;;;20.80;53.90;;;;;;4863353;28;86030;-84
2023/02/11 09:05:48;;;;;;;5.88;3.05;;;20.90;54.00;;;;;;4916405;28;86325;-84
2023/02/11 09:08:15;;;;;;;4.68;2.53;;;21.00;54.00;;;;;;4918095;28;86956;-84
2023/02/11 09:10:41;;;;;;;8.15;2.97;;;20.90;54.00;;;;;;4914792;28;86172;-84
2023/02/11 09:13:07;;;;;;;7.50;3.40;;;21.00;54.10;;;;;;4900647;28;86483;-84
2023/02/11 09:22:19;;;;;;;6.13;3.08;;;20.80;54.50;;;;;;4916827;28;85906;-85
2023/02/11 09:24:45;;;;;;;8.47;3.23;;;20.80;54.60;;;;;;4917255;28;86032;-85
2023/02/11 09:27:10;;;;;;;4.68;2.90;;;20.80;54.70;;;;;;4917193;28;86444;-85
2023/02/11 09:29:36;;;;;;;7.72;3.50;;;20.80;54.60;;;;;;4916638;28;87143;-84
2023/02/11 09:32:02;;;;;;;4.18;2.58;;;20.70;54.70;;;;;;4930138;28;86993;-86
2023/02/11 09:34:27;;;;;;;7.18;3.15;;;20.60;55.00;;;;;;4930333;28;86176;-86
2023/02/11 09:37:00;;;;;;;6.90;3.63;;;20.60;55.20;;;;;;4917127;28;86443;-85
2023/02/11 09:39:26;;;;;;;7.10;2.92;;;20.70;54.90;;;;;;4926164;28;88312;-84
2023/02/11 09:42:07;;;;;;;8.38;3.25;;;20.70;55.00;;;;;;4935361;28;86820;-85
2023/02/11 09:44:35;;;;;;;6.93;3.03;;;20.70;55.10;;;;;;4941365;28;93228;-84
2023/02/11 09:47:06;;;;;;;7.55;3.13;;;20.60;55.10;;;;;;4928571;28;85866;-84
2023/02/11 09:49:48;;;;;;;8.75;3.10;;;20.60;55.10;;;;;;4936510;28;86849;-84
2023/02/11 09:52:39;;;;;;;6.57;2.83;;;20.50;55.20;;;;;;4937572;28;86883;-84
2023/02/11 09:55:16;;;;;;;10.30;3.17;;;20.50;55.20;;;;;;4937363;28;85777;-84
2023/02/11 09:57:41;;;;;;;5.30;3.30;;;20.60;55.30;;;;;;4936385;28;85716;-84
2023/02/11 10:00:21;;;;;;;9.05;3.40;;;20.60;55.30;;;;;;4934549;28;87575;-84
2023/02/11 10:03:31;;;;;;;6.32;3.65;;;20.70;55.10;;;;;;4927923;28;88573;-85
2023/02/11 10:06:34;;;;;;;8.20;3.08;;;20.80;55.00;;;;;;4894796;28;87351;-85
2023/02/11 10:09:08;;;;;;;6.72;3.33;;;20.80;54.80;;;;;;4896126;28;86188;-85
2023/02/11 10:11:48;;;;;;;7.45;2.90;;;20.90;54.70;;;;;;4896092;28;87984;-84
2023/02/11 10:14:41;;;;;;;8.27;3.55;;;20.90;54.70;;;;;;4896752;28;86737;-84
2023/02/11 10:17:35;;;;;;;8.48;3.20;;;21.00;54.80;;;;;;4916023;28;87554;-84
2023/02/11 10:20:07;;;;;;;6.80;3.17;;;20.90;54.50;;;;;;4914914;28;86495;-84
2023/02/11 10:22:48;;;;;;;8.63;3.75;;;20.90;54.80;;;;;;4915417;28;87879;-84
2023/02/11 10:25:27;;;;;;;7.60;3.47;;;20.90;54.90;;;;;;4918697;28;86743;-84
2023/02/11 10:27:56;;;;;;;9.30;3.83;;;20.80;54.90;;;;;;4919085;28;85715;-84
2023/02/11 10:30:27;;;;;;;;;;;20.90;55.20;;;;;;4903280;28;85592;-84
2023/02/11 10:32:56;;;;;;;9.70;3.63;;;20.80;55.00;;;;;;4920394;28;87267;-84
2023/02/11 10:35:23;;;;;;;8.15;3.83;;;20.80;55.20;;;;;;4903990;28;90299;-85
2023/02/11 10:37:49;;;;;;;9.40;4.30;;;20.70;55.40;;;;;;4920304;28;86960;-86
2023/02/11 10:40:26;;;;;;;12.65;5.63;;;20.70;55.40;;;;;;4932606;28;86210;-86
2023/02/11 10:46:28;;;;;;;9.07;4.25;;;20.60;55.50;;;;;;4961087;28;86487;-86
2023/02/11 10:48:54;;;;;;;18.23;6.25;;;20.70;55.70;;;;;;4961016;28;85923;-85
2023/02/11 10:51:33;;;;;;;9.77;4.57;;;20.90;55.00;;;;;;4939541;28;86046;-86
2023/02/11 10:54:08;;;;;;;9.80;4.53;;;20.90;54.90;;;;;;4946053;28;87547;-86
2023/02/11 10:56:49;;;;;;;10.05;4.90;;;21.00;54.80;;;;;;4959281;28;86712;-85
2023/02/11 10:59:38;;;;;;;10.35;4.47;;;21.10;54.90;;;;;;4951056;28;85580;-85
2023/02/11 11:02:33;;;;;;;13.40;5.32;;;21.20;54.70;;;;;;4961279;28;86141;-85
2023/02/11 11:05:03;;;;;;;10.05;5.05;;;21.30;55.00;;;;;;4880434;28;91957;-85
2023/02/11 11:07:32;;;;;;;9.18;5.22;;;21.50;56.00;;;;;;4880699;28;86261;-85
2023/02/11 11:10:23;;;;;;;13.90;5.80;;;21.50;55.70;;;;;;4880522;28;85745;-85
2023/02/11 11:12:48;;;;;;;11.27;5.35;;;21.60;55.80;;;;;;4880789;28;85870;-85
2023/02/11 11:15:17;;;;;;;11.20;5.60;;;21.60;56.00;;;;;;4881069;28;86565;-85
2023/02/11 11:17:43;;;;;;;11.32;5.78;;;21.50;56.50;;;;;;4881027;28;89316;-85
2023/02/11 11:20:35;;;;;;;12.52;5.80;;;21.50;56.70;;;;;;4882252;28;85684;-85
2023/02/11 11:23:27;;;;;;;11.40;5.30;;;21.50;57.40;;;;;;4899883;28;86131;-86
2023/02/11 11:26:02;;;;;;;10.98;5.60;;;21.40;57.70;;;;;;4861124;29;90703;-86
2023/02/11 11:28:38;;;;;;;12.77;6.75;;;21.40;58.20;;;;;;4861147;28;90898;-86
2023/02/11 11:31:10;;;;;;;12.18;6.63;;;21.40;58.00;;;;;;4861700;29;86296;-86
2023/02/11 11:33:40;;;;;;;17.85;8.98;;;21.30;57.90;;;;;;4841836;29;86443;-86
2023/02/11 11:36:11;;;;;;;15.20;7.78;;;21.30;57.70;;;;;;4842472;29;87088;-85
2023/02/11 11:38:43;;;;;;;11.85;6.38;;;21.20;57.80;;;;;;4842264;29;86960;-86
2023/02/11 11:41:23;;;;;;;15.60;7.28;;;21.20;58.10;;;;;;4840857;29;85799;-87
2023/02/11 11:51:07;;;;;;;13.43;7.45;;;21.10;59.30;;;;;;4842404;29;89986;-86
2023/02/11 11:53:47;;;;;;;14.70;6.93;;;21.00;59.60;;;;;;4805599;29;86314;-86
2023/02/11 11:56:25;;;;;;;15.40;6.40;;;21.00;59.70;;;;;;4806395;29;86409;-86
2023/02/11 11:58:51;;;;;;;19.50;7.45;;;20.90;59.60;;;;;;4804974;29;90988;-86
2023/02/11 12:16:49;;;;;;;13.50;5.72;;;21.40;58.50;;;;;;4890056;28;86183;-86
2023/02/11 12:19:38;;;;;;;13.55;6.22;;;21.50;58.30;;;;;;4888636;28;86131;-86
2023/02/11 12:22:09;;;;;;;12.95;6.10;;;21.60;58.20;;;;;;4889586;28;85809;-87
2023/02/11 12:25:22;;;;;;;11.88;5.97;;;21.60;58.20;;;;;;4889195;28;87433;-87
2023/02/11 12:27:57;;;;;;;11.73;5.63;;;21.60;58.00;;;;;;4889570;28;87585;-86
2023/02/11 12:30:42;;;;;;;11.55;5.60;;;21.70;58.00;;;;;;4917138;28;86109;-87
2023/02/11 12:33:22;;;;;;;13.77;5.95;;;21.70;57.80;;;;;;4961321;28;86175;-87
2023/02/11 12:40:03;;;;;;;14.52;7.10;;;21.70;57.90;;;;;;4957982;28;85688;-84
2023/02/11 12:43:19;;;;;;;12.13;6.30;;;21.70;56.70;;;;;;4880061;28;86011;-85
2023/02/11 12:46:22;;;;;;;16.00;6.63;;;21.70;57.10;;;;;;4877810;28;86068;-84
2023/02/11 12:48:47;;;;;;;18.27;5.95;;;21.80;57.30;;;;;;4878293;28;87527;-84
2023/02/11 12:51:31;;;;;;;12.50;6.22;;;21.90;57.20;;;;;;4878650;28;87455;-85
2023/02/11 12:54:21;;;;;;;15.88;6.63;;;21.90;57.50;;;;;;4870496;28;85699;-84
2023/02/11 12:57:04;;;;;;;;;;;21.90;57.50;;;;;;4860395;28;86424;-85
2023/02/11 12:59:49;;;;;;;12.45;5.72;;;21.90;57.30;;;;;;4871775;28;87652;-85
2023/02/11 13:02:38;;;;;;;16.40;7.47;;;22.00;57.40;;;;;;4871160;28;90431;-85
2023/02/11 13:05:26;;;;;;;17.38;7.75;;;22.00;58.10;;;;;;4869561;28;87672;-84
2023/02/11 13:08:06;;;;;;;17.65;8.85;;;22.00;58.00;;;;;;4841147;29;85965;-85
2023/02/11 13:10:40;;;;;;;13.98;7.25;;;22.10;58.50;;;;;;4824889;29;87895;-87
2023/02/11 13:13:37;;;;;;;13.38;7.32;;;22.10;58.30;;;;;;4836967;29;86884;-86
2023/02/11 13:16:12;;;;;;;18.55;7.50;;;22.10;58.50;;;;;;4819759;29;86280;-86
2023/02/11 13:19:08;;;;;;;13.50;7.38;;;22.00;56.60;;;;;;4821273;29;85916;-86
2023/02/11 13:21:43;;;;;;;13.23;6.72;;;22.10;57.20;;;;;;4821833;29;87547;-86
2023/02/11 13:24:28;;;;;;;14.27;7.32;;;22.00;57.80;;;;;;4820946;29;86782;-85
2023/02/11 13:27:10;;;;;;;12.80;7.57;;;22.00;58.00;;;;;;4822120;29;86354;-86
2023/02/11 13:32:21;;;;;;;11.50;6.25;;;22.10;57.30;;;;;;4783632;29;91545;-86
2023/02/11 13:34:55;;;;;;;16.27;6.63;;;22.10;57.40;;;;;;4776433;29;86943;-86
2023/02/11 13:37:28;;;;;;;10.57;6.40;;;22.10;57.30;;;;;;4761476;29;86623;-87
2023/02/11 13:43:24;;;;;;;14.02;7.00;;;22.10;57.30;;;;;;4774144;29;86188;-84
2023/02/11 13:45:51;;;;;;;14.48;7.35;;;22.10;56.10;;;;;;4790635;29;89914;-84
2023/02/11 13:48:23;;;;;;;15.35;7.40;;;22.10;55.90;;;;;;4839051;29;85874;-85
2023/02/11 13:50:52;;;;;;;12.45;6.93;;;22.10;56.60;;;;;;4836954;29;85991;-84
2023/02/11 13:53:18;;;;;;;12.93;6.47;;;22.10;56.80;;;;;;4878892;28;86436;-84
2023/02/11 13:55:47;;;;;;;10.77;6.03;;;22.10;56.90;;;;;;4896281;28;86385;-86
2023/02/11 13:58:13;;;;;;;12.37;6.20;;;22.10;56.90;;;;;;4889721;28;86405;-84
2023/02/11 14:00:38;;;;;;;14.75;6.60;;;22.10;56.60;;;;;;4899031;28;85913;-84
2023/02/11 14:09:16;;;;;;;;;;;22.10;57.20;;;;;;4962025;28;86181;-84
2023/02/11 14:19:07;;;;;;;16.08;7.57;;;22.10;56.40;;;;;;4874828;28;86957;-84
2023/02/11 14:21:36;;;;;;;13.57;7.13;;;22.10;56.10;;;;;;4883204;28;86574;-85